Time;durP1;ratioP1;P1;durP2;ratioP2;P2;SDS_P1;SDS_P2;PMS_P1;PMS_P2;Temp;Humidity;BMP_temperature;BMP_pressure;BME280_temperature;BME280_humidity;BME280_pressure;Samples;Min_cycle;Max_cycle;Signal;HPM_P1;HPM_P2
2023/01/13 00:01:09;;;;;;;2.67;1.00;;;20.60;53.30;;;;;;5020602;28;20426;-65
2023/01/13 00:03:35;;;;;;;2.55;0.98;;;20.60;53.30;;;;;;5022454;28;20481;-65
2023/01/13 00:06:02;;;;;;;2.05;0.88;;;20.50;53.20;;;;;;5022909;28;20026;-65
2023/01/13 00:08:27;;;;;;;1.67;0.90;;;20.50;53.20;;;;;;5020934;28;20037;-66
2023/01/13 00:10:53;;;;;;;1.98;1.10;;;20.50;53.00;;;;;;5026975;28;20030;-65
2023/01/13 00:13:25;;;;;;;3.58;1.08;;;20.50;53.10;;;;;;5025675;28;20362;-65
2023/01/13 00:15:59;;;;;;;2.28;0.93;;;20.50;53.00;;;;;;5024535;28;20029;-65
2023/01/13 00:18:25;;;;;;;1.75;0.90;;;20.50;53.60;;;;;;5019432;28;20049;-66
2023/01/13 00:21:20;;;;;;;2.10;0.90;;;20.50;52.80;;;;;;5021359;28;20033;-65
2023/01/13 00:23:47;;;;;;;2.40;1.00;;;20.40;52.90;;;;;;5018316;28;20561;-66
2023/01/13 00:26:18;;;;;;;1.75;0.95;;;20.40;53.00;;;;;;5021577;28;20464;-65
2023/01/13 00:28:43;;;;;;;2.22;1.00;;;20.50;53.00;;;;;;5024084;28;20025;-66
2023/01/13 00:31:12;;;;;;;3.28;1.45;;;20.40;52.90;;;;;;5021264;28;20040;-66
2023/01/13 00:33:38;;;;;;;2.38;0.93;;;20.50;53.00;;;;;;5020997;28;20023;-65
2023/01/13 00:36:05;;;;;;;3.47;1.10;;;20.40;53.00;;;;;;5017359;28;20052;-64
2023/01/13 00:38:32;;;;;;;2.85;1.00;;;20.40;53.00;;;;;;5020877;28;20429;-65
2023/01/13 00:41:00;;;;;;;2.20;1.08;;;20.40;53.00;;;;;;5022121;28;20026;-65
2023/01/13 00:43:27;;;;;;;3.42;0.80;;;20.40;53.00;;;;;;5021817;28;20033;-65
2023/01/13 00:45:53;;;;;;;1.92;1.00;;;20.40;53.10;;;;;;5020771;28;20062;-65
2023/01/13 00:48:20;;;;;;;2.00;0.90;;;20.40;53.10;;;;;;5016113;28;20528;-65
2023/01/13 00:50:53;;;;;;;2.97;1.10;;;20.40;53.10;;;;;;5027748;28;20392;-66
2023/01/13 00:53:18;;;;;;;1.45;0.82;;;20.40;53.10;;;;;;5022314;28;20540;-65
2023/01/13 00:55:44;;;;;;;2.95;0.90;;;20.40;53.10;;;;;;5018765;28;20096;-66
2023/01/13 00:58:09;;;;;;;1.70;0.90;;;20.40;53.10;;;;;;5019415;28;20030;-66
2023/01/13 01:00:36;;;;;;;2.22;0.85;;;20.30;53.10;;;;;;5022209;28;20516;-64
2023/01/13 01:03:01;;;;;;;1.63;0.88;;;20.30;53.10;;;;;;5020374;28;20108;-65
2023/01/13 01:05:27;;;;;;;1.73;0.80;;;20.30;53.00;;;;;;5019258;28;20189;-65
2023/01/13 01:07:53;;;;;;;1.83;0.90;;;20.30;53.10;;;;;;5021966;28;20041;-65
2023/01/13 01:10:18;;;;;;;1.23;0.70;;;20.30;53.10;;;;;;5022678;28;20037;-65
2023/01/13 01:12:44;;;;;;;2.80;0.80;;;20.30;53.10;;;;;;5027662;28;20033;-65
2023/01/13 01:15:10;;;;;;;2.83;1.00;;;20.30;53.10;;;;;;5021527;28;20045;-66
2023/01/13 01:17:36;;;;;;;2.05;0.90;;;20.30;53.00;;;;;;5021125;28;20133;-65
2023/01/13 01:20:03;;;;;;;2.45;0.90;;;20.30;53.10;;;;;;5021057;28;20052;-65
2023/01/13 01:22:28;;;;;;;1.95;0.90;;;20.30;53.10;;;;;;5018470;28;20028;-64
2023/01/13 01:24:54;;;;;;;2.63;0.90;;;20.30;53.10;;;;;;5016917;28;20527;-66
2023/01/13 01:27:20;;;;;;;1.92;0.80;;;20.30;53.20;;;;;;5018136;28;20037;-65
2023/01/13 01:29:45;;;;;;;2.28;0.90;;;20.30;53.20;;;;;;5018847;28;20034;-65
2023/01/13 01:32:11;;;;;;;1.30;0.70;;;20.20;53.10;;;;;;5020665;28;20057;-65
2023/01/13 01:34:38;;;;;;;2.50;1.10;;;20.20;53.60;;;;;;5017445;28;20059;-66
2023/01/13 01:37:03;;;;;;;1.55;0.73;;;20.20;53.10;;;;;;5020489;28;20017;-65
2023/01/13 01:39:29;;;;;;;1.58;0.90;;;20.20;53.10;;;;;;5015647;28;20041;-66
2023/01/13 01:44:42;;;;;;;1.10;0.70;;;20.20;53.10;;;;;;5020794;28;20085;-65
2023/01/13 01:47:14;;;;;;;2.00;0.97;;;20.20;53.10;;;;;;5018437;28;20491;-65
2023/01/13 01:49:41;;;;;;;2.08;0.80;;;20.20;53.00;;;;;;5016818;28;20264;-66
2023/01/13 01:52:32;;;;;;;1.50;0.80;;;20.20;53.00;;;;;;5018500;28;20040;-66
2023/01/13 01:55:14;;;;;;;1.77;0.77;;;20.20;53.10;;;;;;5016069;28;20212;-65
2023/01/13 01:57:46;;;;;;;1.70;0.77;;;20.10;53.00;;;;;;5021456;28;20056;-65
2023/01/13 02:00:12;;;;;;;1.85;0.77;;;20.20;53.00;;;;;;5019849;28;20080;-65
2023/01/13 02:02:39;;;;;;;1.55;0.70;;;20.20;53.10;;;;;;5021709;28;20080;-65
2023/01/13 02:05:06;;;;;;;2.03;0.73;;;20.10;53.10;;;;;;5023917;28;20044;-65
2023/01/13 02:07:33;;;;;;;1.35;0.73;;;20.10;53.00;;;;;;5021483;28;20036;-65
2023/01/13 02:10:04;;;;;;;1.23;0.80;;;20.10;53.10;;;;;;5018314;28;20422;-65
2023/01/13 02:12:33;;;;;;;1.30;0.70;;;20.10;53.10;;;;;;5017519;28;20049;-65
2023/01/13 02:15:06;;;;;;;2.33;0.90;;;20.10;53.10;;;;;;5020470;28;20026;-65
2023/01/13 02:18:05;;;;;;;1.85;0.80;;;20.10;53.20;;;;;;5017842;28;20037;-65
2023/01/13 02:20:52;;;;;;;2.08;1.00;;;20.10;53.20;;;;;;5017423;28;20153;-65
2023/01/13 02:26:37;;;;;;;1.48;0.80;;;20.10;53.20;;;;;;5015334;28;20136;-65
2023/01/13 02:32:33;;;;;;;2.05;1.10;;;20.10;53.20;;;;;;5008542;28;20026;-65
2023/01/13 02:35:10;;;;;;;1.55;0.73;;;20.10;53.20;;;;;;5020025;28;20037;-65
2023/01/13 02:37:40;;;;;;;1.35;0.70;;;20.10;53.20;;;;;;5019009;28;20018;-65
2023/01/13 02:40:06;;;;;;;;;;;20.00;53.20;;;;;;5022188;28;20037;-65
2023/01/13 02:45:54;;;;;;;1.38;0.73;;;20.00;53.30;;;;;;5025653;28;20059;-65
2023/01/13 02:48:22;;;;;;;1.65;0.90;;;20.00;53.30;;;;;;5030508;28;20026;-65
2023/01/13 02:51:04;;;;;;;1.63;0.70;;;20.00;53.30;;;;;;5020653;28;20385;-65
2023/01/13 02:53:39;;;;;;;1.27;0.80;;;20.00;53.30;;;;;;5018818;28;20034;-65
2023/01/13 02:56:07;;;;;;;1.48;0.80;;;20.00;53.40;;;;;;5025618;28;20496;-64
2023/01/13 02:58:35;;;;;;;1.60;0.80;;;20.00;53.40;;;;;;5035653;28;20022;-66
2023/01/13 03:01:01;;;;;;;1.27;0.70;;;20.00;53.40;;;;;;5019889;28;20025;-65
2023/01/13 03:03:26;;;;;;;1.15;0.70;;;20.00;53.40;;;;;;5019963;28;20030;-65
2023/01/13 03:06:00;;;;;;;2.03;0.70;;;20.00;53.40;;;;;;5023125;28;20472;-65
2023/01/13 03:08:30;;;;;;;1.77;0.70;;;20.00;53.50;;;;;;5024978;28;20496;-66
2023/01/13 03:11:04;;;;;;;1.30;0.70;;;20.00;53.50;;;;;;5018215;28;20072;-65
2023/01/13 03:13:57;;;;;;;1.38;0.80;;;19.90;53.40;;;;;;5019132;28;20488;-65
2023/01/13 03:16:47;;;;;;;1.50;0.68;;;19.90;53.40;;;;;;5022106;28;20033;-65
2023/01/13 03:19:27;;;;;;;;;;;19.90;53.40;;;;;;5022646;28;20075;-65
2023/01/13 03:22:12;;;;;;;2.17;0.80;;;19.90;53.40;;;;;;5023895;28;19916;-65
2023/01/13 03:24:43;;;;;;;1.23;0.60;;;19.90;53.40;;;;;;5022594;28;20038;-65
2023/01/13 03:27:17;;;;;;;1.40;0.60;;;19.90;53.40;;;;;;5020769;28;20030;-65
2023/01/13 03:29:57;;;;;;;1.63;0.70;;;19.90;53.40;;;;;;5039554;28;20080;-65
2023/01/13 03:32:35;;;;;;;1.05;0.60;;;19.90;53.40;;;;;;5024019;28;20030;-65
2023/01/13 03:35:16;;;;;;;1.63;0.80;;;19.90;53.40;;;;;;5023359;28;20021;-66
2023/01/13 03:37:46;;;;;;;1.77;0.73;;;19.80;53.40;;;;;;5020816;28;20427;-66
2023/01/13 03:40:17;;;;;;;2.15;0.80;;;19.90;53.50;;;;;;5019837;28;20056;-65
2023/01/13 03:44:20;;;;;;;1.15;0.68;;;19.90;53.50;;;;;;5023191;28;20083;-65
2023/01/13 03:45:36;;;;;;;0.90;0.60;;;19.90;53.50;;;;;;5022397;28;20481;-65
2023/01/13 03:48:09;;;;;;;1.05;0.70;;;19.90;53.50;;;;;;5026524;28;20133;-65
2023/01/13 03:50:42;;;;;;;1.85;0.80;;;19.90;53.50;;;;;;5022444;28;20030;-65
2023/01/13 03:53:34;;;;;;;1.08;0.50;;;19.90;53.60;;;;;;5022342;28;20045;-65
2023/01/13 03:56:08;;;;;;;0.73;0.60;;;19.90;53.60;;;;;;5018357;28;20033;-65
2023/01/13 03:58:42;;;;;;;1.33;0.70;;;19.90;53.60;;;;;;5020859;28;20025;-65
2023/01/13 04:01:17;;;;;;;1.13;0.70;;;19.90;53.60;;;;;;5023020;28;20465;-65
2023/01/13 04:03:51;;;;;;;1.67;0.65;;;19.90;53.70;;;;;;5019236;28;20026;-65
2023/01/13 04:06:21;;;;;;;1.15;0.75;;;19.90;53.60;;;;;;5022895;28;20029;-65
2023/01/13 04:08:54;;;;;;;1.17;0.60;;;19.80;53.60;;;;;;5025387;28;20022;-65
2023/01/13 04:11:31;;;;;;;1.17;0.65;;;19.80;53.60;;;;;;5020105;28;20044;-65
2023/01/13 04:13:58;;;;;;;1.20;0.60;;;19.80;53.60;;;;;;5020116;28;20026;-66
2023/01/13 04:16:24;;;;;;;1.15;0.60;;;19.80;53.70;;;;;;5024519;28;20109;-64
2023/01/13 04:18:50;;;;;;;1.38;0.57;;;19.80;53.70;;;;;;5019537;28;20137;-65
2023/01/13 04:21:15;;;;;;;0.73;0.50;;;19.80;53.70;;;;;;5019319;28;20057;-65
2023/01/13 04:23:41;;;;;;;1.67;0.80;;;19.80;53.80;;;;;;5023211;28;20552;-66
2023/01/13 04:26:06;;;;;;;1.23;0.65;;;19.80;53.70;;;;;;5022005;28;20035;-65
2023/01/13 04:28:33;;;;;;;1.15;0.60;;;19.80;53.80;;;;;;5019019;28;20555;-66
2023/01/13 04:30:59;;;;;;;1.00;0.50;;;19.80;53.80;;;;;;5019440;28;20052;-65
2023/01/13 04:33:25;;;;;;;1.55;0.60;;;19.80;53.80;;;;;;5018772;28;20021;-65
2023/01/13 04:35:51;;;;;;;0.80;0.50;;;19.80;53.80;;;;;;5019969;28;20621;-65
2023/01/13 04:38:20;;;;;;;1.50;0.60;;;19.80;53.80;;;;;;5018453;28;20037;-66
2023/01/13 04:40:46;;;;;;;1.17;0.60;;;19.80;53.80;;;;;;5019752;28;20524;-65
2023/01/13 04:43:14;;;;;;;1.00;0.60;;;19.80;53.90;;;;;;5019405;28;20256;-65
2023/01/13 04:45:40;;;;;;;1.25;0.60;;;19.80;53.90;;;;;;5023800;28;20361;-64
2023/01/13 04:48:06;;;;;;;0.95;0.50;;;19.80;53.90;;;;;;5021919;28;20026;-65
2023/01/13 04:50:32;;;;;;;1.10;0.70;;;19.80;53.90;;;;;;5022133;28;20104;-65
2023/01/13 04:52:59;;;;;;;0.75;0.50;;;19.80;53.90;;;;;;5023849;28;20063;-65
2023/01/13 04:55:24;;;;;;;1.50;0.60;;;19.80;54.00;;;;;;5019155;28;20528;-65
2023/01/13 04:57:50;;;;;;;1.23;0.52;;;19.80;54.00;;;;;;5021639;28;20025;-65
2023/01/13 05:00:19;;;;;;;0.68;0.50;;;19.80;54.00;;;;;;5020607;28;20033;-65
2023/01/13 05:02:44;;;;;;;0.82;0.60;;;19.70;53.90;;;;;;5019934;28;20099;-65
2023/01/13 05:05:10;;;;;;;1.55;0.70;;;19.70;53.90;;;;;;5020240;28;20053;-64
2023/01/13 05:07:36;;;;;;;0.95;0.60;;;19.70;53.90;;;;;;5021434;28;20116;-65
2023/01/13 05:10:01;;;;;;;0.50;0.50;;;19.70;53.90;;;;;;5024030;28;20091;-65
2023/01/13 05:17:58;;;;;;;0.75;0.50;;;19.70;54.00;;;;;;5021659;28;20094;-65
2023/01/13 05:20:24;;;;;;;0.50;0.40;;;19.70;54.00;;;;;;5021265;28;20029;-65
2023/01/13 05:25:38;;;;;;;0.98;0.50;;;19.70;54.10;;;;;;5024287;28;20962;-65
2023/01/13 05:28:03;;;;;;;1.08;0.60;;;19.70;54.10;;;;;;5019303;28;20037;-65
2023/01/13 05:30:32;;;;;;;0.88;0.60;;;19.70;54.10;;;;;;5023519;28;20033;-65
2023/01/13 05:32:58;;;;;;;0.68;0.40;;;19.70;54.10;;;;;;5018657;28;20029;-65
2023/01/13 05:35:24;;;;;;;0.60;0.45;;;19.70;54.20;;;;;;5021725;28;20025;-65
2023/01/13 05:37:50;;;;;;;1.00;0.50;;;19.70;54.20;;;;;;5024041;28;20030;-65
2023/01/13 05:43:18;;;;;;;0.68;0.47;;;19.70;54.20;;;;;;5021485;28;20079;-64
2023/01/13 05:45:45;;;;;;;0.88;0.50;;;19.60;54.20;;;;;;5018375;28;20057;-65
2023/01/13 05:48:11;;;;;;;0.85;0.47;;;19.60;54.20;;;;;;5016858;28;20521;-65
2023/01/13 05:50:36;;;;;;;0.65;0.50;;;19.70;54.20;;;;;;5020184;28;20037;-66
2023/01/13 05:53:02;;;;;;;0.65;0.47;;;19.60;54.30;;;;;;5016961;28;20437;-65
2023/01/13 05:55:27;;;;;;;0.73;0.50;;;19.60;54.30;;;;;;5020507;28;20037;-64
2023/01/13 05:57:53;;;;;;;0.73;0.40;;;19.60;54.30;;;;;;5022752;28;20506;-65
2023/01/13 06:00:19;;;;;;;0.60;0.38;;;19.60;54.30;;;;;;5018124;28;20425;-65
2023/01/13 06:02:44;;;;;;;0.90;0.50;;;19.60;54.30;;;;;;5021374;28;20028;-65
2023/01/13 06:05:10;;;;;;;0.90;0.45;;;19.60;54.40;;;;;;5022783;28;20117;-65
2023/01/13 06:07:36;;;;;;;1.00;0.70;;;19.60;54.40;;;;;;5015203;28;20037;-65
2023/01/13 06:10:01;;;;;;;1.27;0.50;;;19.60;54.40;;;;;;5016547;28;20638;-65
2023/01/13 06:12:27;;;;;;;0.93;0.50;;;19.60;54.40;;;;;;5019635;28;20025;-65
2023/01/13 06:14:52;;;;;;;0.70;0.40;;;19.60;54.40;;;;;;5026564;28;20824;-64
2023/01/13 06:17:18;;;;;;;0.60;0.40;;;19.60;54.50;;;;;;5019053;28;20660;-65
2023/01/13 06:19:43;;;;;;;0.73;0.45;;;19.60;54.50;;;;;;5019035;28;20041;-66
2023/01/13 06:22:21;;;;;;;0.55;0.50;;;19.60;54.70;;;;;;5017803;28;20029;-65
2023/01/13 06:24:48;;;;;;;0.75;0.50;;;19.60;55.00;;;;;;5018560;28;20037;-65
2023/01/13 06:27:14;;;;;;;0.75;0.50;;;19.60;55.30;;;;;;5020808;28;20208;-66
2023/01/13 06:29:40;;;;;;;0.95;0.50;;;19.60;55.70;;;;;;5021245;28;20452;-65
2023/01/13 06:32:11;;;;;;;0.65;0.40;;;19.60;55.90;;;;;;5021902;28;20101;-68
2023/01/13 06:34:38;;;;;;;1.05;0.50;;;19.60;56.10;;;;;;5018949;28;20449;-69
2023/01/13 06:37:05;;;;;;;0.98;0.40;;;19.70;56.70;;;;;;5022065;28;20033;-68
2023/01/13 06:39:31;;;;;;;0.88;0.47;;;19.80;56.40;;;;;;5015702;28;20048;-68
2023/01/13 06:44:43;;;;;;;1.00;0.40;;;20.20;56.00;;;;;;5019206;28;20069;-68
2023/01/13 06:47:08;;;;;;;0.82;0.40;;;20.40;55.90;;;;;;5023685;28;20033;-68
2023/01/13 06:49:34;;;;;;;0.70;0.40;;;20.50;55.70;;;;;;5016856;28;20107;-69
2023/01/13 06:52:00;;;;;;;0.85;0.40;;;20.70;55.60;;;;;;5017466;28;20393;-68
2023/01/13 06:54:25;;;;;;;1.13;0.60;;;20.80;55.60;;;;;;5020581;28;20068;-69
2023/01/13 06:56:51;;;;;;;0.85;0.40;;;20.90;55.30;;;;;;5016227;28;20496;-68
2023/01/13 06:59:17;;;;;;;0.73;0.40;;;21.10;55.20;;;;;;5020809;28;20018;-68
2023/01/13 07:01:42;;;;;;;0.93;0.50;;;21.20;55.10;;;;;;5017807;28;20036;-69
2023/01/13 07:04:08;;;;;;;0.85;0.57;;;21.30;55.10;;;;;;5021766;28;20109;-69
2023/01/13 07:06:34;;;;;;;0.40;0.30;;;21.50;54.90;;;;;;5026158;28;20029;-69
2023/01/13 07:08:59;;;;;;;0.40;0.32;;;21.60;54.70;;;;;;5018793;28;20041;-69
2023/01/13 07:11:25;;;;;;;0.50;0.50;;;21.80;54.70;;;;;;5020190;28;20095;-68
2023/01/13 07:16:35;;;;;;;0.20;0.20;;;22.10;54.50;;;;;;5020777;28;20440;-66
2023/01/13 07:19:00;;;;;;;0.28;0.20;;;22.20;54.00;;;;;;5020225;28;20025;-68
2023/01/13 07:21:26;;;;;;;0.90;0.20;;;22.10;54.00;;;;;;5016543;28;20029;-68
2023/01/13 07:23:51;;;;;;;0.40;0.32;;;22.10;54.00;;;;;;5016093;28;20034;-68
2023/01/13 07:26:17;;;;;;;0.40;0.30;;;22.00;53.90;;;;;;5017391;28;20036;-68
2023/01/13 07:28:42;;;;;;;0.65;0.40;;;22.00;54.00;;;;;;5020498;28;20026;-68
2023/01/13 07:31:14;;;;;;;0.40;0.40;;;22.10;53.80;;;;;;5021173;28;20504;-68
2023/01/13 07:33:40;;;;;;;0.47;0.40;;;22.10;52.40;;;;;;5022060;28;20034;-69
2023/01/13 07:36:06;;;;;;;0.50;0.40;;;22.10;52.50;;;;;;5021470;28;20033;-68
2023/01/13 07:38:35;;;;;;;0.38;0.38;;;22.10;52.60;;;;;;5026616;28;20073;-68
2023/01/13 07:43:45;;;;;;;0.88;0.40;;;22.10;52.70;;;;;;5024256;28;20080;-67
2023/01/13 07:46:11;;;;;;;0.57;0.43;;;22.10;52.70;;;;;;5022989;28;20081;-67
2023/01/13 07:48:37;;;;;;;0.45;0.35;;;22.10;52.80;;;;;;5023497;28;20033;-68
2023/01/13 07:51:08;;;;;;;0.47;0.40;;;22.10;52.80;;;;;;5024956;28;20036;-67
2023/01/13 07:53:34;;;;;;;0.85;0.50;;;22.20;52.90;;;;;;5024012;28;20104;-68
2023/01/13 07:56:01;;;;;;;0.60;0.40;;;22.20;52.90;;;;;;5022293;28;20026;-68
2023/01/13 07:58:27;;;;;;;0.52;0.40;;;22.20;52.80;;;;;;5024651;28;20495;-67
2023/01/13 08:00:54;;;;;;;0.55;0.30;;;22.20;52.70;;;;;;5023671;28;20362;-68
2023/01/13 08:03:20;;;;;;;0.70;0.50;;;22.30;52.80;;;;;;5020273;28;20033;-68
2023/01/13 08:05:46;;;;;;;0.55;0.45;;;22.30;53.00;;;;;;5021147;28;20134;-68
2023/01/13 08:08:12;;;;;;;0.80;0.50;;;22.30;52.90;;;;;;5021615;28;20461;-67
2023/01/13 08:10:38;;;;;;;1.35;0.70;;;22.30;51.20;;;;;;5023121;28;20096;-69
2023/01/13 08:13:19;;;;;;;0.30;0.30;;;22.30;50.30;;;;;;5022096;28;20477;-69
2023/01/13 08:15:48;;;;;;;1.77;0.47;;;22.30;49.80;;;;;;5017894;28;20117;-68
2023/01/13 08:18:16;;;;;;;1.02;0.50;;;22.30;49.90;;;;;;5021901;28;20190;-69
2023/01/13 08:20:42;;;;;;;0.35;0.30;;;22.30;49.90;;;;;;5020633;28;20121;-69
2023/01/13 08:23:07;;;;;;;0.57;0.40;;;22.30;49.70;;;;;;5021437;28;20120;-65
2023/01/13 08:25:33;;;;;;;0.47;0.40;;;22.30;50.20;;;;;;5022096;28;20597;-68
2023/01/13 08:27:59;;;;;;;0.38;0.30;;;22.30;50.30;;;;;;5019110;28;20033;-67
2023/01/13 08:30:26;;;;;;;0.77;0.50;;;22.30;50.50;;;;;;5022207;28;20040;-66
2023/01/13 08:32:52;;;;;;;0.57;0.40;;;22.30;51.30;;;;;;5021327;28;20126;-68
2023/01/13 08:35:18;;;;;;;0.70;0.40;;;22.30;51.30;;;;;;5022495;28;20144;-68
2023/01/13 08:37:45;;;;;;;0.50;0.40;;;22.30;51.20;;;;;;5018570;28;20381;-66
2023/01/13 08:40:12;;;;;;;1.83;0.45;;;22.40;50.80;;;;;;5021977;28;20026;-68
2023/01/13 08:42:38;;;;;;;0.60;0.35;;;22.40;50.30;;;;;;5027804;28;20025;-68
2023/01/13 08:45:04;;;;;;;0.50;0.30;;;22.30;50.10;;;;;;5028153;28;20033;-68
2023/01/13 08:47:30;;;;;;;0.52;0.40;;;22.40;50.70;;;;;;5020128;28;20500;-69
2023/01/13 08:49:56;;;;;;;1.02;0.40;;;22.40;50.30;;;;;;5020510;28;20053;-71
2023/01/13 08:52:22;;;;;;;0.70;0.40;;;22.40;50.50;;;;;;5019483;28;20036;-67
2023/01/13 08:54:47;;;;;;;0.60;0.32;;;22.40;50.50;;;;;;5022650;28;20029;-67
2023/01/13 08:57:15;;;;;;;1.10;0.40;;;22.40;50.00;;;;;;5021862;28;20026;-68
2023/01/13 08:59:42;;;;;;;0.70;0.40;;;22.40;51.00;;;;;;5020341;28;20116;-70
2023/01/13 09:02:13;;;;;;;0.30;0.30;;;22.50;52.00;;;;;;5019184;28;20478;-68
2023/01/13 09:04:39;;;;;;;0.30;0.30;;;22.50;52.10;;;;;;5020887;28;20136;-66
2023/01/13 09:07:04;;;;;;;0.30;0.30;;;22.50;51.10;;;;;;5021901;28;20045;-66
2023/01/13 09:09:30;;;;;;;0.85;0.45;;;22.50;51.90;;;;;;5022385;28;20037;-67
2023/01/13 09:14:40;;;;;;;1.98;0.40;;;22.50;50.90;;;;;;5023860;28;20095;-67
2023/01/13 09:17:08;;;;;;;0.60;0.40;;;22.50;50.60;;;;;;5019856;28;20030;-68
2023/01/13 09:19:34;;;;;;;1.00;0.50;;;22.50;51.50;;;;;;5027100;28;20474;-66
2023/01/13 09:22:00;;;;;;;0.82;0.50;;;22.50;52.70;;;;;;5022140;28;20507;-68
2023/01/13 09:24:26;;;;;;;0.73;0.40;;;22.60;51.40;;;;;;5021925;28;20046;-68
2023/01/13 09:26:52;;;;;;;0.30;0.30;;;22.60;50.50;;;;;;5021922;28;20034;-69
2023/01/13 09:29:18;;;;;;;0.47;0.40;;;22.50;50.60;;;;;;5019667;28;20057;-68
2023/01/13 09:31:44;;;;;;;0.52;0.30;;;22.50;49.90;;;;;;5020657;28;20461;-68
2023/01/13 09:36:59;;;;;;;0.75;0.30;;;22.50;49.40;;;;;;5019488;28;20036;-67
2023/01/13 09:39:25;;;;;;;0.30;0.20;;;22.50;49.70;;;;;;5019210;28;20037;-68
2023/01/13 09:44:49;;;;;;;0.30;0.30;;;22.50;49.50;;;;;;5017450;28;20059;-67
2023/01/13 09:47:23;;;;;;;0.30;0.30;;;22.50;49.60;;;;;;5019160;28;20432;-69
2023/01/13 09:49:49;;;;;;;0.20;0.20;;;22.50;49.50;;;;;;5017699;28;20026;-68
2023/01/13 09:52:22;;;;;;;0.65;0.40;;;22.60;49.50;;;;;;5014733;28;20021;-68
2023/01/13 09:55:10;;;;;;;0.98;0.40;;;22.60;50.60;;;;;;5017482;28;20120;-75
2023/01/13 09:57:37;;;;;;;1.13;0.60;;;22.60;49.40;;;;;;5016382;28;20072;-70
2023/01/13 10:00:09;;;;;;;0.90;0.40;;;22.60;48.70;;;;;;5019504;28;20559;-70
2023/01/13 10:03:17;;;;;;;0.40;0.40;;;22.60;48.70;;;;;;5019929;28;20037;-69
2023/01/13 10:05:55;;;;;;;0.80;0.50;;;22.60;48.60;;;;;;5021623;28;20026;-70
2023/01/13 10:08:42;;;;;;;0.40;0.40;;;22.60;48.10;;;;;;5017938;28;20053;-68
2023/01/13 10:14:22;;;;;;;0.98;0.32;;;22.60;48.10;;;;;;5021812;28;20128;-69
2023/01/13 10:17:06;;;;;;;1.30;0.50;;;22.50;48.30;;;;;;5020758;28;20022;-67
2023/01/13 10:19:43;;;;;;;0.60;0.40;;;22.60;48.70;;;;;;5018232;28;20516;-69
2023/01/13 10:22:32;;;;;;;0.50;0.50;;;22.50;48.60;;;;;;5018874;28;20457;-64
2023/01/13 10:25:19;;;;;;;0.95;0.50;;;22.50;49.00;;;;;;5018061;28;20449;-64
2023/01/13 10:27:48;;;;;;;1.23;0.50;;;22.50;48.90;;;;;;5020788;28;20026;-68
2023/01/13 10:30:26;;;;;;;0.95;0.55;;;22.40;48.90;;;;;;5019565;28;20030;-67
2023/01/13 10:32:55;;;;;;;0.70;0.50;;;22.50;49.00;;;;;;5021803;28;20445;-67
2023/01/13 10:35:52;;;;;;;0.60;0.50;;;22.40;48.80;;;;;;5027649;28;20029;-66
2023/01/13 10:38:22;;;;;;;1.00;0.50;;;22.40;48.90;;;;;;5015785;28;20025;-68
2023/01/13 10:40:51;;;;;;;1.33;0.80;;;22.50;49.10;;;;;;5015678;28;20531;-69
2023/01/13 10:43:16;;;;;;;0.30;0.30;;;22.40;49.10;;;;;;5018781;28;20087;-67
2023/01/13 10:45:51;;;;;;;1.08;0.50;;;22.50;49.30;;;;;;5021379;28;20040;-69
2023/01/13 10:48:17;;;;;;;1.50;0.60;;;22.40;49.20;;;;;;5017043;28;20096;-68
2023/01/13 10:50:47;;;;;;;1.10;0.43;;;22.40;49.30;;;;;;5014841;28;20030;-67
2023/01/13 10:53:18;;;;;;;0.77;0.40;;;22.40;49.30;;;;;;5021159;28;20026;-67
2023/01/13 10:55:58;;;;;;;0.63;0.35;;;22.40;49.90;;;;;;5021235;28;20036;-69
2023/01/13 10:58:24;;;;;;;1.83;0.60;;;22.40;49.40;;;;;;5018551;28;20501;-71
2023/01/13 11:01:08;;;;;;;1.02;0.40;;;22.40;49.40;;;;;;5017802;28;20474;-67
2023/01/13 11:03:40;;;;;;;0.55;0.40;;;22.40;49.50;;;;;;5020601;28;20029;-67
2023/01/13 11:06:07;;;;;;;0.80;0.52;;;22.40;49.60;;;;;;5020718;28;20057;-67
2023/01/13 11:08:44;;;;;;;0.30;0.30;;;22.40;49.70;;;;;;5029751;28;20056;-70
2023/01/13 11:11:31;;;;;;;0.98;0.50;;;22.40;49.70;;;;;;5022586;28;20029;-68
2023/01/13 11:16:52;;;;;;;0.93;0.60;;;22.40;49.70;;;;;;5025248;28;20036;-68
2023/01/13 11:19:21;;;;;;;1.10;0.60;;;22.40;49.80;;;;;;5021983;28;20076;-69
2023/01/13 11:22:05;;;;;;;;;;;22.40;49.80;;;;;;5026734;28;20099;-68
2023/01/13 11:25:00;;;;;;;0.85;0.45;;;22.40;49.90;;;;;;5024391;28;19940;-70
2023/01/13 11:27:51;;;;;;;0.50;0.50;;;22.40;49.80;;;;;;5022895;28;20436;-67
2023/01/13 11:30:23;;;;;;;1.08;0.47;;;22.40;49.80;;;;;;5021585;28;20029;-69
2023/01/13 11:33:10;;;;;;;2.33;0.80;;;22.40;50.00;;;;;;5024902;28;20040;-68
2023/01/13 11:36:05;;;;;;;1.80;0.70;;;22.40;50.00;;;;;;5023577;28;20025;-68
2023/01/13 11:38:36;;;;;;;1.20;0.60;;;22.40;50.00;;;;;;5024895;28;20034;-69
2023/01/13 11:41:13;;;;;;;2.63;0.60;;;22.40;50.00;;;;;;5024454;28;20018;-66
2023/01/13 11:44:04;;;;;;;2.13;0.68;;;22.40;50.00;;;;;;5023092;28;20100;-67
2023/01/13 11:46:31;;;;;;;1.83;0.80;;;22.40;50.00;;;;;;5024199;28;20133;-67
2023/01/13 11:48:58;;;;;;;2.40;0.70;;;22.40;50.20;;;;;;5023749;28;20112;-66
2023/01/13 11:51:37;;;;;;;1.95;0.70;;;22.30;50.10;;;;;;5021834;28;20025;-65
2023/01/13 11:54:30;;;;;;;1.63;0.80;;;22.30;50.10;;;;;;5018658;28;20562;-65
2023/01/13 11:57:02;;;;;;;1.10;0.70;;;22.30;50.00;;;;;;5021664;28;20100;-66
2023/01/13 11:59:46;;;;;;;1.92;0.80;;;22.40;50.10;;;;;;5022474;28;20052;-66
2023/01/13 12:02:33;;;;;;;1.10;0.65;;;22.30;50.10;;;;;;5019381;28;20046;-67
2023/01/13 12:05:10;;;;;;;1.92;1.00;;;22.30;50.10;;;;;;5019615;28;20137;-67
2023/01/13 12:08:02;;;;;;;2.15;0.80;;;22.30;50.10;;;;;;5017321;28;20092;-64
2023/01/13 12:10:40;;;;;;;1.90;0.90;;;22.30;50.10;;;;;;5019215;28;20037;-64
2023/01/13 12:13:43;;;;;;;2.30;0.90;;;22.30;50.20;;;;;;5021214;28;20179;-67
2023/01/13 12:16:24;;;;;;;1.83;1.08;;;22.30;50.20;;;;;;5024360;28;20047;-68
2023/01/13 12:19:29;;;;;;;2.30;1.10;;;22.30;50.30;;;;;;5027220;28;20053;-67
2023/01/13 12:22:13;;;;;;;2.95;1.00;;;22.30;50.30;;;;;;5019918;28;20025;-65
2023/01/13 12:24:54;;;;;;;2.40;1.00;;;22.30;50.40;;;;;;5022514;28;20043;-67
2023/01/13 12:27:32;;;;;;;2.38;1.00;;;22.30;50.30;;;;;;5021269;28;20030;-67
2023/01/13 12:30:02;;;;;;;2.72;1.40;;;22.30;50.30;;;;;;5024021;28;20800;-67
2023/01/13 12:32:38;;;;;;;2.92;1.02;;;22.30;50.40;;;;;;5021203;28;20038;-66
2023/01/13 12:35:13;;;;;;;2.30;1.27;;;22.30;50.40;;;;;;5023700;28;20453;-66
2023/01/13 12:37:58;;;;;;;1.85;1.00;;;22.30;50.40;;;;;;5020847;28;20022;-67
2023/01/13 12:41:02;;;;;;;2.13;1.02;;;22.30;50.40;;;;;;5021897;28;20026;-67
2023/01/13 12:46:43;;;;;;;2.08;1.08;;;22.30;50.40;;;;;;5020554;28;20068;-69
2023/01/13 12:49:33;;;;;;;1.63;1.00;;;22.30;50.40;;;;;;5024355;28;20045;-67
2023/01/13 12:52:07;;;;;;;2.47;1.30;;;22.30;50.40;;;;;;5017157;28;20729;-69
2023/01/13 12:54:53;;;;;;;3.05;1.40;;;22.30;50.40;;;;;;5019404;28;20032;-68
2023/01/13 12:57:20;;;;;;;3.50;1.17;;;22.30;50.50;;;;;;5019836;28;20087;-66
2023/01/13 12:59:58;;;;;;;2.95;1.40;;;22.30;50.60;;;;;;5022735;28;20022;-67
2023/01/13 13:02:29;;;;;;;3.13;1.42;;;22.30;50.60;;;;;;5020232;28;20062;-66
2023/01/13 13:04:58;;;;;;;2.97;1.40;;;22.30;50.60;;;;;;5021494;28;20075;-68
2023/01/13 13:07:38;;;;;;;2.15;1.10;;;22.20;50.60;;;;;;5021206;28;20103;-67
2023/01/13 13:10:16;;;;;;;2.42;1.30;;;22.20;50.70;;;;;;5020557;28;20042;-67
2023/01/13 13:15:28;;;;;;;3.35;1.40;;;22.20;50.70;;;;;;5020353;28;20084;-66
2023/01/13 13:18:20;;;;;;;3.47;1.60;;;22.20;50.80;;;;;;5019859;28;20034;-67
2023/01/13 13:21:04;;;;;;;2.47;1.33;;;22.20;50.80;;;;;;5020375;28;20021;-66
2023/01/13 13:23:38;;;;;;;3.15;1.38;;;22.20;50.80;;;;;;5019708;28;20338;-66
2023/01/13 13:26:09;;;;;;;2.45;1.30;;;22.20;50.80;;;;;;5022883;28;20310;-66
2023/01/13 13:28:40;;;;;;;2.75;1.30;;;22.10;50.70;;;;;;5020634;28;20488;-66
2023/01/13 13:31:25;;;;;;;3.10;1.40;;;22.20;50.80;;;;;;5015608;28;20109;-67
2023/01/13 13:34:09;;;;;;;2.45;1.20;;;22.10;50.80;;;;;;5016366;28;20430;-67
2023/01/13 13:36:58;;;;;;;2.95;1.30;;;22.10;50.80;;;;;;5016986;28;20049;-67
2023/01/13 13:47:44;;;;;;;3.00;1.50;;;22.10;50.80;;;;;;5020554;28;20477;-68
2023/01/13 13:50:19;;;;;;;3.42;1.50;;;22.10;50.80;;;;;;5016344;28;20134;-68
2023/01/13 13:53:00;;;;;;;2.20;1.20;;;22.10;50.80;;;;;;5021535;28;20454;-70
2023/01/13 13:55:27;;;;;;;2.70;1.25;;;22.10;50.80;;;;;;5020598;28;20042;-69
2023/01/13 13:57:56;;;;;;;3.45;1.60;;;22.10;50.60;;;;;;5020366;28;20861;-69
2023/01/13 14:00:25;;;;;;;2.22;1.15;;;22.10;50.60;;;;;;5020776;28;20092;-69
2023/01/13 14:02:55;;;;;;;2.92;1.27;;;22.20;50.50;;;;;;5019877;28;20106;-68
2023/01/13 14:05:34;;;;;;;3.78;1.40;;;22.20;50.60;;;;;;5019635;28;20120;-67
2023/01/13 14:08:20;;;;;;;;;;;22.10;50.60;;;;;;5020534;28;20053;-67
2023/01/13 14:10:46;;;;;;;3.30;1.70;;;22.20;50.60;;;;;;5018374;28;20327;-66